Terminal Aerodrome Forecast
Issued by NWS Charleston, WV

Current Version | Previous Version | Text Only | Print | Product List | Glossary Off
Versions: 1 2 3 4 5 6 7 8 9 10 11 12 13 14 15 16 17 18 19 20 21 22 23 24 25 26 27 28 29 30

347
FTUS41 KRLX 211801 RRA
TAFHTS
TAF
KHTS 211801Z 2118/2218 18006KT P6SM BKN250
     FM212100 VRB03KT P6SM BKN060
     FM220400 00000KT P6SM -SHRA OVC050
     FM220700 00000KT 6SM -SHRA BR OVC025
     FM221100 VRB03KT 5SM -SHRA BR OVC010
     FM221300 00000KT 6SM BR OVC010=

USA.gov is the U.S. government's official web portal to all federal, state and local government web resources and services.